This is the latest recevied weather packets stored in our database for station/object DOUGLAS. If no packets are shown the sender has not sent any weather packets the latest 10 day(s).
| Time | Temp. | Humidity | Pressure | Rain* | Wind** | Luminosity | Snow |
|---|---|---|---|---|---|---|---|
| 1778024403 | 13.89° C | 86% | 0 hPa | - | - | - | - |
| 1778023803 | 14.44° C | 82% | 0 hPa | - | - | - | - |
| 1778023203 | 14.44° C | 83% | 0 hPa | - | - | - | - |
| 1778022603 | 13.33° C | 87% | 0 hPa | - | - | - | - |
| 1778022003 | 13.33° C | 86% | 0 hPa | - | - | - | - |
| 1778021403 | 15° C | 81% | 0 hPa | - | - | - | - |
| 1778020803 | 14.44° C | 81% | 0 hPa | - | - | - | - |
| 1778020204 | 15° C | 80% | 0 hPa | - | - | - | - |
| 1778019602 | 13.89° C | 84% | 0 hPa | - | - | - | - |
| 1778019002 | 13.33° C | 85% | 0 hPa | - | - | - | - |
| 1778018403 | 13.33° C | 86% | 0 hPa | - | - | - | - |
| 1778017803 | 13.33° C | 87% | 0 hPa | - | - | - | - |
| 1778017203 | 13.33° C | 87% | 0 hPa | - | - | - | - |
| 1778016603 | 12.78° C | 88% | 0 hPa | - | - | - | - |
| 1778016003 | 12.78° C | 87% | 0 hPa | - | - | - | - |
| 1778015403 | 12.78° C | 87% | 0 hPa | - | - | - | - |
| 1778014803 | 13.33° C | 87% | 0 hPa | - | - | - | - |
| 1778014203 | 12.22° C | 88% | 0 hPa | - | - | - | - |
| 1778013603 | 12.22° C | 90% | 0 hPa | - | - | - | - |
| 1778013003 | 12.22° C | 89% | 0 hPa | - | - | - | - |
| 1778012403 | 12.78° C | 88% | 0 hPa | - | - | - | - |
| 1778011803 | 11.67° C | 90% | 0 hPa | - | - | - | - |
| 1778011204 | 11.67° C | 90% | 0 hPa | - | - | - | - |
| 1778010608 | 11.67° C | 90% | 0 hPa | - | - | - | - |
| 1778010003 | 11.11° C | 93% | 0 hPa | - | - | - | - |
* Rain since midnight (hover to see other rain measurements)
** Current wind speed in m/s (hover to see current wind gust speed)